Tijucas Do Sul, Brazil
Current Conditions -  °F | °C
As of 4:00 AM on Wednesday 28 Jan 2015 (Local Time) from SBCT Reporting Station
Light Rain Light Rain  
Wind Chill: 68°   Ceiling: 4000
Heat Index: 68°   Visibility: 5mi
Dew Point: 66°   Wind: 3mph
Humidity: 94%   Direction: 300°WNW
Pressure: 30.03"   Gusts: NA
Location:  25.93°S, 49.18°W
Report Text: SBCT 280600Z 30003KT 8000 -RA SCT013 BKN040 20/19 Q1017
Loading
Personal Weather Stations






























Interactive Weather Map New forecast layout! Learn more

10-Day Weather Forecast

Advertisements
Track Severe Weather on mobile